Time;durP1;ratioP1;P1;durP2;ratioP2;P2;SDS_P1;SDS_P2;PMS_P1;PMS_P2;Temp;Humidity;BMP_temperature;BMP_pressure;BME280_temperature;BME280_humidity;BME280_pressure;Samples;Min_cycle;Max_cycle;Signal;HPM_P1;HPM_P2
2023/02/13 00:00:14;;;;;;;148.43;51.10;;;-0.60;99.90;;;;;;5085412;28;20051;-83
2023/02/13 00:03:03;;;;;;;158.38;51.10;;;-0.60;99.90;;;;;;5063854;28;20118;-82
2023/02/13 00:05:53;;;;;;;143.35;50.50;;;-0.70;99.90;;;;;;5076898;28;20375;-84
2023/02/13 00:08:40;;;;;;;152.05;50.50;;;-0.80;99.90;;;;;;5078617;28;20053;-83
2023/02/13 00:11:27;;;;;;;151.52;52.13;;;-0.80;99.90;;;;;;5073217;28;20045;-82
2023/02/13 00:14:15;;;;;;;145.18;52.58;;;-0.80;99.90;;;;;;5072899;28;20129;-82
2023/02/13 00:17:03;;;;;;;155.07;53.80;;;-0.70;99.90;;;;;;5060853;28;20044;-81
2023/02/13 00:19:53;;;;;;;161.25;54.28;;;-0.60;99.90;;;;;;5071898;28;20045;-82
2023/02/13 00:22:40;;;;;;;149.35;54.75;;;-0.50;99.90;;;;;;5073186;28;20094;-81
2023/02/13 00:25:28;;;;;;;165.93;55.30;;;-0.40;99.90;;;;;;5050237;28;20064;-83
2023/02/13 00:28:24;;;;;;;173.23;57.40;;;-0.40;99.90;;;;;;5071536;28;20367;-81
2023/02/13 00:31:14;;;;;;;166.57;54.03;;;-0.50;99.90;;;;;;5074728;28;20063;-83
2023/02/13 00:34:01;;;;;;;150.55;51.97;;;-0.60;99.90;;;;;;5062538;28;20476;-82
2023/02/13 00:36:49;;;;;;;164.88;53.85;;;-0.60;99.90;;;;;;5075852;28;20040;-83
2023/02/13 00:39:42;;;;;;;157.38;55.25;;;-0.70;99.90;;;;;;5055122;28;20091;-82
2023/02/13 00:42:29;;;;;;;143.75;50.45;;;-0.80;99.90;;;;;;5073034;28;20367;-83
2023/02/13 00:45:16;;;;;;;155.70;51.72;;;-0.80;99.90;;;;;;5083616;28;20070;-83
2023/02/13 00:48:04;;;;;;;149.23;50.33;;;-1.00;99.90;;;;;;5075543;28;20464;-83
2023/02/13 00:50:53;;;;;;;146.60;50.55;;;-1.10;99.90;;;;;;5053707;28;20099;-82
2023/02/13 00:53:41;;;;;;;153.45;49.70;;;-1.10;99.90;;;;;;5076536;28;20360;-82
2023/02/13 00:56:28;;;;;;;149.82;48.58;;;-1.10;99.90;;;;;;5076687;28;20051;-81
2023/02/13 00:59:16;;;;;;;146.38;50.63;;;-1.10;99.90;;;;;;5069267;28;20056;-82
2023/02/13 01:02:03;;;;;;;160.35;54.70;;;-1.10;99.90;;;;;;5075573;28;20067;-83
2023/02/13 01:04:53;;;;;;;145.68;52.40;;;-1.10;99.90;;;;;;5090512;28;20029;-83
2023/02/13 01:07:40;;;;;;;170.98;56.03;;;-1.10;99.90;;;;;;5089080;28;20091;-80
2023/02/13 01:13:03;;;;;;;162.88;55.13;;;-1.10;99.90;;;;;;5189977;22;20092;-82
2023/02/13 01:15:52;;;;;;;170.40;55.20;;;-1.10;99.90;;;;;;5101028;28;20044;-82
2023/02/13 01:18:42;;;;;;;149.40;52.45;;;-1.10;99.90;;;;;;5111456;28;20070;-83
2023/02/13 01:21:29;;;;;;;163.98;54.47;;;-1.20;99.90;;;;;;5101450;28;20101;-82
2023/02/13 01:24:19;;;;;;;183.27;57.65;;;-1.10;99.90;;;;;;5109791;28;20052;-82
2023/02/13 01:27:06;;;;;;;166.98;54.50;;;-1.10;99.90;;;;;;5120772;28;20047;-82
2023/02/13 01:29:53;;;;;;;172.40;56.30;;;-1.10;99.90;;;;;;5118372;28;20077;-82
2023/02/13 01:32:42;;;;;;;193.88;58.50;;;-1.10;99.90;;;;;;5104299;28;20044;-81
2023/02/13 01:35:29;;;;;;;187.55;59.13;;;-1.00;99.90;;;;;;5105251;28;20100;-83
2023/02/13 01:38:17;;;;;;;190.75;60.10;;;-1.10;99.90;;;;;;5109462;28;20036;-83
2023/02/13 01:41:04;;;;;;;174.43;57.08;;;-1.10;99.90;;;;;;5109815;28;20047;-82
2023/02/13 01:43:57;;;;;;;182.48;58.75;;;-1.10;99.90;;;;;;5105542;28;20044;-83
2023/02/13 01:46:44;;;;;;;189.85;58.53;;;-1.20;99.90;;;;;;5104414;28;20185;-83
2023/02/13 01:49:32;;;;;;;171.43;55.15;;;-1.30;99.90;;;;;;5104723;28;20043;-84
2023/02/13 01:52:19;;;;;;;192.95;57.70;;;-1.30;99.90;;;;;;5112100;28;20880;-81
2023/02/13 01:55:08;;;;;;;181.43;56.38;;;-1.30;99.90;;;;;;5095559;28;20051;-83
2023/02/13 01:58:05;;;;;;;161.05;54.72;;;-1.30;99.90;;;;;;5093553;28;20088;-83
2023/02/13 02:00:55;;;;;;;198.68;60.33;;;-1.30;99.90;;;;;;5108842;28;20379;-83
2023/02/13 02:03:56;;;;;;;193.60;58.53;;;-1.30;99.90;;;;;;5107392;28;20046;-81
2023/02/13 02:07:02;;;;;;;175.77;56.70;;;-1.30;99.90;;;;;;5108999;28;20048;-83
2023/02/13 02:09:52;;;;;;;200.00;57.92;;;-1.40;99.90;;;;;;5102341;28;20126;-82
2023/02/13 02:13:11;;;;;;;224.15;61.95;;;-1.30;99.90;;;;;;5101822;27;20048;-82
2023/02/13 02:15:58;;;;;;;216.02;58.67;;;-1.40;99.90;;;;;;5099453;28;20461;-82
2023/02/13 02:18:46;;;;;;;205.77;57.75;;;-1.40;99.90;;;;;;5117116;27;20071;-83
2023/02/13 02:21:51;;;;;;;192.30;58.28;;;-1.50;99.90;;;;;;5107393;28;20079;-81
2023/02/13 02:24:59;;;;;;;199.35;57.88;;;-1.50;99.90;;;;;;5115038;28;20421;-82
2023/02/13 02:28:20;;;;;;;197.07;58.10;;;-1.50;99.90;;;;;;5103764;28;20378;-82
2023/02/13 02:31:20;;;;;;;203.82;56.22;;;-1.50;99.90;;;;;;5111970;28;20085;-82
2023/02/13 02:34:26;;;;;;;187.68;54.45;;;-1.60;99.90;;;;;;5105503;28;20056;-80
2023/02/13 02:37:45;;;;;;;219.05;57.13;;;-1.60;99.90;;;;;;5110268;28;20105;-82
2023/02/13 02:40:38;;;;;;;200.65;57.05;;;-1.60;99.90;;;;;;5112735;28;20401;-81
2023/02/13 02:43:58;;;;;;;207.18;59.35;;;-1.50;99.90;;;;;;5092774;28;20378;-83
2023/02/13 02:50:45;;;;;;;165.40;54.47;;;-1.40;99.90;;;;;;5096062;28;20125;-83
2023/02/13 02:53:58;;;;;;;167.30;54.63;;;-1.50;99.90;;;;;;5111688;28;20471;-82
2023/02/13 02:56:47;;;;;;;164.63;53.10;;;-1.70;99.90;;;;;;5103669;28;20039;-83
2023/02/13 03:22:27;;;;;;;164.35;51.05;;;-2.10;99.90;;;;;;5109004;28;20498;-80
2023/02/13 03:25:48;;;;;;;164.00;49.95;;;-2.10;99.90;;;;;;5078476;28;20059;-83
2023/02/13 03:32:00;;;;;;;178.05;52.30;;;-1.90;99.90;;;;;;5094930;28;20054;-83
2023/02/13 03:38:39;;;;;;;164.63;49.78;;;-1.80;99.90;;;;;;5093785;28;20040;-81
2023/02/13 03:41:37;;;;;;;152.32;49.05;;;-1.90;99.90;;;;;;5100662;28;20047;-81
2023/02/13 03:44:27;;;;;;;156.32;48.25;;;-1.90;99.90;;;;;;5098456;28;20165;-81
2023/02/13 03:47:14;;;;;;;155.75;49.88;;;-2.00;99.90;;;;;;5084041;28;20056;-81
2023/02/13 03:50:09;;;;;;;155.63;47.88;;;-2.00;99.90;;;;;;5092660;28;20039;-83
2023/02/13 03:53:10;;;;;;;163.65;49.28;;;-2.00;99.90;;;;;;5107561;28;20385;-82
2023/02/13 03:59:16;;;;;;;164.10;50.95;;;-1.90;99.90;;;;;;5109983;28;20112;-83
2023/02/13 04:02:18;;;;;;;157.88;49.92;;;-1.90;99.90;;;;;;5111734;28;20051;-83
2023/02/13 04:05:19;;;;;;;162.95;49.72;;;-2.00;99.90;;;;;;5100012;28;20039;-83
2023/02/13 04:08:08;;;;;;;159.68;48.90;;;-2.00;99.90;;;;;;5079563;28;20043;-81
2023/02/13 04:11:14;;;;;;;182.27;52.15;;;-2.00;99.90;;;;;;5103687;28;20047;-80
2023/02/13 04:14:24;;;;;;;183.48;52.10;;;-2.00;99.90;;;;;;5094879;28;20078;-81
2023/02/13 04:17:25;;;;;;;187.68;54.72;;;-1.90;99.90;;;;;;5106325;28;20073;-84
2023/02/13 04:20:16;;;;;;;199.00;54.95;;;-1.80;99.90;;;;;;5105049;28;20047;-82
2023/02/13 04:23:20;;;;;;;206.18;56.45;;;-1.80;99.90;;;;;;5096998;28;20047;-82
2023/02/13 04:26:16;;;;;;;206.98;52.88;;;-1.80;99.90;;;;;;5109692;28;20545;-83
2023/02/13 04:29:06;;;;;;;198.27;55.10;;;-1.80;99.90;;;;;;5089253;28;20509;-83
2023/02/13 04:31:53;;;;;;;223.13;56.80;;;-1.90;99.90;;;;;;5104167;28;20093;-83
2023/02/13 04:34:41;;;;;;;210.82;55.75;;;-1.90;99.90;;;;;;5117678;28;20122;-83
2023/02/13 04:37:30;;;;;;;230.07;60.45;;;-1.70;99.90;;;;;;5124013;28;20040;-83
2023/02/13 04:40:17;;;;;;;214.50;54.70;;;-1.70;99.90;;;;;;5093400;28;20487;-83
2023/02/13 04:43:05;;;;;;;202.55;55.55;;;-1.80;99.90;;;;;;5108727;28;20075;-84
2023/02/13 04:45:52;;;;;;;186.60;53.63;;;-1.80;99.90;;;;;;5098738;28;20047;-82
2023/02/13 04:48:41;;;;;;;189.68;50.53;;;-1.90;99.90;;;;;;5107338;28;20097;-83
2023/02/13 04:51:31;;;;;;;185.65;52.47;;;-1.90;99.90;;;;;;5094836;28;20056;-81
2023/02/13 04:54:18;;;;;;;192.25;51.03;;;-2.00;99.90;;;;;;5097255;28;20081;-81
2023/02/13 04:57:05;;;;;;;163.45;49.15;;;-1.90;99.90;;;;;;5108053;28;20044;-80
2023/02/13 04:59:52;;;;;;;162.82;48.13;;;-1.90;99.90;;;;;;5093945;28;20116;-81
2023/02/13 05:06:49;;;;;;;134.65;45.60;;;-1.90;99.90;;;;;;5112801;28;20036;-83
2023/02/13 05:09:40;;;;;;;127.05;45.08;;;-2.00;99.90;;;;;;5109574;28;20344;-83
2023/02/13 05:12:27;;;;;;;136.07;44.05;;;-2.20;99.90;;;;;;5108293;28;20463;-82
2023/02/13 05:15:15;;;;;;;137.25;44.33;;;-2.30;99.90;;;;;;5086684;28;20040;-83
2023/02/13 05:18:02;;;;;;;130.82;45.97;;;-2.30;99.90;;;;;;5113227;28;20173;-83
2023/02/13 05:23:58;;;;;;;124.55;41.28;;;-2.30;99.90;;;;;;5104088;28;20136;-82
2023/02/13 05:26:48;;;;;;;117.40;39.72;;;-2.30;99.90;;;;;;5101574;28;20085;-81
2023/02/13 05:29:35;;;;;;;128.35;41.65;;;-2.30;99.90;;;;;;5101317;28;20047;-84
2023/02/13 05:32:25;;;;;;;119.93;41.95;;;-2.30;99.90;;;;;;5093943;28;20055;-83
2023/02/13 05:35:12;;;;;;;141.38;44.15;;;-2.20;99.90;;;;;;5091505;28;20455;-83
2023/02/13 05:38:00;;;;;;;130.10;45.05;;;-2.20;99.90;;;;;;5092255;28;20044;-84
2023/02/13 05:40:47;;;;;;;123.82;44.25;;;-2.20;99.90;;;;;;5106303;28;20044;-82
2023/02/13 05:43:34;;;;;;;125.65;43.65;;;-2.10;99.90;;;;;;5109247;28;20122;-83
2023/02/13 05:46:21;;;;;;;144.82;46.97;;;-2.00;99.90;;;;;;5094016;28;20408;-82
2023/02/13 05:49:10;;;;;;;138.00;45.28;;;-1.90;99.90;;;;;;5109789;28;20047;-82
2023/02/13 05:52:04;;;;;;;149.90;47.45;;;-1.80;99.90;;;;;;5094644;28;20047;-82
2023/02/13 05:54:51;;;;;;;140.05;46.88;;;-1.80;99.90;;;;;;5099891;28;20052;-83
2023/02/13 05:57:39;;;;;;;140.07;45.53;;;-1.80;99.90;;;;;;5114656;28;20052;-83
2023/02/13 06:00:26;;;;;;;148.38;48.63;;;-1.90;99.90;;;;;;5101059;28;20040;-80
2023/02/13 06:03:16;;;;;;;166.10;52.90;;;-1.80;99.90;;;;;;5086757;28;20043;-79
2023/02/13 06:06:03;;;;;;;150.88;48.72;;;-1.90;99.90;;;;;;5107959;28;20055;-82
2023/02/13 06:08:50;;;;;;;139.35;46.75;;;-2.00;99.90;;;;;;5107787;28;20040;-84
2023/02/13 06:11:38;;;;;;;145.07;46.15;;;-2.10;99.90;;;;;;5098188;28;20060;-84
2023/02/13 06:14:25;;;;;;;137.68;44.97;;;-2.20;99.90;;;;;;5099411;28;20044;-89
2023/02/13 06:17:15;;;;;;;126.93;43.30;;;-2.20;99.90;;;;;;5099904;28;20040;-87
2023/02/13 06:20:03;;;;;;;133.63;44.78;;;-2.20;99.90;;;;;;5111406;28;20048;-88
2023/02/13 06:22:55;;;;;;;127.60;43.80;;;-2.20;99.90;;;;;;5106025;28;20028;-85
2023/02/13 06:25:42;;;;;;;131.60;46.22;;;-2.20;99.90;;;;;;5125570;28;20123;-86
2023/02/13 06:28:33;;;;;;;138.98;45.15;;;-2.20;99.90;;;;;;5103324;28;20043;-88
2023/02/13 06:31:20;;;;;;;126.97;44.15;;;-2.30;99.90;;;;;;5101747;28;20301;-89
2023/02/13 06:34:10;;;;;;;154.02;49.38;;;-2.30;99.90;;;;;;5100897;28;20551;-88
2023/02/13 06:36:57;;;;;;;139.60;46.42;;;-2.20;99.90;;;;;;5097227;28;20453;-86
2023/02/13 06:39:44;;;;;;;131.73;44.25;;;-2.10;99.90;;;;;;5106269;28;20533;-84
2023/02/13 06:42:39;;;;;;;134.05;45.13;;;-2.00;99.90;;;;;;5093142;28;20547;-85
2023/02/13 06:45:35;;;;;;;127.15;44.90;;;-2.00;99.90;;;;;;5102773;28;20521;-89
2023/02/13 07:10:21;;;;;;;;;;;;;;;;;;;;;
2023/02/13 07:22:06;;;;;;;106.50;36.67;;;-1.80;99.90;;;;;;5015570;28;20018;-88
2023/02/13 07:25:02;;;;;;;136.10;49.10;;;-1.80;99.90;;;;;;4983029;28;20292;-88
2023/02/13 09:45:14;;;;;;;;;;;5.50;1.00;;;;;;4957032;28;20055;-84
2023/02/13 09:52:48;;;;;;;;;;;;;;;;;;;;;
2023/02/13 09:56:16;;;;;;;19.50;11.88;;;6.60;99.90;;;;;;4937065;28;20038;-84
2023/02/13 10:00:02;;;;;;;;;;;;;;;;;;;;;
2023/02/13 10:07:47;;;;;;;14.98;10.85;;;7.60;99.90;;;;;;4871557;28;20044;-84
2023/02/13 10:11:20;;;;;;;19.05;11.02;;;9.10;99.90;;;;;;4981756;28;20050;-83
2023/02/13 10:14:37;;;;;;;15.43;10.80;;;9.30;24.30;;;;;;4985506;28;20512;-84
2023/02/13 10:17:58;;;;;;;17.25;10.15;;;9.60;1.00;;;;;;5001495;28;20631;-85
2023/02/13 10:21:13;;;;;;;12.13;9.23;;;11.30;1.00;;;;;;4999459;28;20045;-85
2023/02/13 10:24:11;;;;;;;13.48;9.95;;;12.10;99.90;;;;;;5013223;28;20473;-83
2023/02/13 10:27:03;;;;;;;13.75;10.27;;;11.40;99.90;;;;;;5011429;28;20078;-83
2023/02/13 10:30:04;;;;;;;13.15;9.75;;;11.40;99.90;;;;;;5007226;28;20052;-83
2023/02/13 10:33:20;;;;;;;12.40;9.40;;;12.00;99.90;;;;;;5012532;28;20049;-85
2023/02/13 10:36:15;;;;;;;15.10;11.20;;;12.00;99.90;;;;;;5030675;28;20471;-83
2023/02/13 10:39:08;;;;;;;;;;;11.10;99.90;;;;;;5083517;28;20044;-86
2023/02/13 10:42:37;;;;;;;14.02;10.27;;;10.80;99.90;;;;;;5088583;28;19927;-84
2023/02/13 10:55:15;;;;;;;12.63;9.52;;;13.30;99.90;;;;;;5035778;28;20030;-84
2023/02/13 11:02:30;;;;;;;11.15;8.82;;;15.40;99.90;;;;;;5034078;28;20056;-85
2023/02/13 11:06:14;;;;;;;11.65;9.27;;;15.30;99.90;;;;;;5078518;28;20512;-85
2023/02/13 11:55:41;;;;;;;;;;;;;;;;;;;;;
2023/02/13 12:03:07;;;;;;;;;;;;;;;;;;;;;
2023/02/13 12:06:38;;;;;;;;;;;;;;;;;;;;;
2023/02/13 12:22:48;;;;;;;7.00;5.78;;;17.50;1.00;;;;;;4926237;29;20060;-90
2023/02/13 12:26:29;;;;;;;7.18;5.82;;;18.10;1.00;;;;;;4928347;29;20138;-89
2023/02/13 12:33:53;;;;;;;;;;;;;;;;;;;;;
2023/02/13 12:41:30;;;;;;;6.45;5.53;;;20.00;1.00;;;;;;4973302;28;20481;-91
2023/02/13 12:44:52;;;;;;;7.40;6.07;;;19.70;1.00;;;;;;4906783;29;20131;-89
2023/02/13 15:43:53;;;;;;;10.95;8.07;;;14.00;1.00;;;;;;5028746;28;20041;-93
2023/02/13 15:47:07;;;;;;;10.50;8.32;;;13.70;1.00;;;;;;5017225;28;20053;-91
2023/02/13 15:49:55;;;;;;;10.73;8.15;;;14.10;1.00;;;;;;5023908;28;20449;-88
2023/02/13 15:52:43;;;;;;;9.90;8.07;;;14.50;1.00;;;;;;5038410;28;20092;-89
2023/02/13 15:55:37;;;;;;;13.40;8.80;;;14.40;1.00;;;;;;5041740;28;20081;-85
2023/02/13 15:58:29;;;;;;;12.82;8.88;;;14.00;1.00;;;;;;5034379;28;20057;-89
2023/02/13 16:01:20;;;;;;;13.80;8.70;;;13.90;1.00;;;;;;5034278;28;20045;-88
2023/02/13 16:04:11;;;;;;;13.93;8.73;;;13.50;1.00;;;;;;5021212;28;20171;-90
2023/02/13 16:07:00;;;;;;;12.60;8.50;;;13.50;1.00;;;;;;5031618;28;20053;-86
2023/02/13 16:09:47;;;;;;;11.77;8.82;;;13.00;1.00;;;;;;5026292;28;20152;-87
2023/02/13 16:12:35;;;;;;;13.00;9.65;;;12.40;1.00;;;;;;5022173;28;20056;-87
2023/02/13 16:15:28;;;;;;;20.75;11.25;;;12.00;1.00;;;;;;5031943;28;20045;-87
2023/02/13 16:18:19;;;;;;;20.30;12.25;;;11.10;1.00;;;;;;5033509;28;20096;-88
2023/02/13 16:21:09;;;;;;;22.23;13.20;;;10.30;1.00;;;;;;5030892;28;20099;-86
2023/02/13 16:24:07;;;;;;;24.33;14.40;;;9.40;1.00;;;;;;5012304;28;20463;-88
2023/02/13 16:26:55;;;;;;;22.52;14.15;;;8.50;3.20;;;;;;5012820;28;20050;-87
2023/02/13 16:29:55;;;;;;;21.95;14.27;;;7.70;28.40;;;;;;5024614;28;20426;-88
2023/02/13 16:32:43;;;;;;;24.17;14.88;;;7.20;68.00;;;;;;5034988;28;20494;-89
2023/02/13 16:35:34;;;;;;;27.52;15.55;;;6.80;99.90;;;;;;5037785;28;20143;-88
2023/02/13 16:38:41;;;;;;;24.80;15.50;;;6.40;99.90;;;;;;5037610;28;20487;-90
2023/02/13 16:41:32;;;;;;;23.25;15.93;;;6.20;99.90;;;;;;5030239;28;20077;-88
2023/02/13 16:44:32;;;;;;;24.45;16.30;;;6.00;99.90;;;;;;5020874;28;20062;-88
2023/02/13 16:47:23;;;;;;;26.60;16.55;;;5.70;99.90;;;;;;5018641;28;20057;-87
2023/02/13 16:50:15;;;;;;;28.65;17.23;;;5.60;99.90;;;;;;5031745;28;20050;-91
2023/02/13 16:53:10;;;;;;;29.15;17.63;;;5.40;99.90;;;;;;5018844;28;20053;-90
2023/02/13 16:56:08;;;;;;;27.52;17.13;;;5.30;99.90;;;;;;5030530;28;20033;-89
2023/02/13 16:59:16;;;;;;;30.55;18.25;;;5.10;99.90;;;;;;5020612;28;20042;-89
2023/02/13 17:02:16;;;;;;;33.10;19.60;;;4.90;99.90;;;;;;5028216;28;20073;-91
2023/02/13 17:05:11;;;;;;;28.58;18.00;;;4.80;99.90;;;;;;5027263;28;20088;-89
2023/02/13 17:08:00;;;;;;;30.60;18.48;;;4.70;1.00;;;;;;5037246;28;20049;-88
2023/02/13 17:11:05;;;;;;;32.25;18.65;;;4.60;1.00;;;;;;5034327;28;20041;-90
2023/02/13 17:13:53;;;;;;;31.67;18.75;;;4.50;1.00;;;;;;5043071;28;20053;-90
2023/02/13 17:16:48;;;;;;;34.42;19.85;;;4.40;1.00;;;;;;5038608;28;20045;-88
2023/02/13 17:19:41;;;;;;;34.17;17.38;;;4.30;1.00;;;;;;5041886;28;20042;-90
2023/02/13 17:22:38;;;;;;;31.65;18.80;;;4.30;2.20;;;;;;5043992;28;20539;-90
2023/02/13 17:25:28;;;;;;;35.30;19.25;;;4.30;28.30;;;;;;5019225;28;20447;-89
2023/02/13 17:28:29;;;;;;;30.33;17.80;;;4.20;58.30;;;;;;5030159;28;20045;-89
2023/02/13 17:31:16;;;;;;;33.45;17.63;;;4.00;88.80;;;;;;5039270;28;20049;-87
2023/02/13 17:34:04;;;;;;;31.55;18.20;;;3.90;99.90;;;;;;5025439;28;20117;-90
2023/02/13 17:36:54;;;;;;;31.02;17.80;;;3.70;99.90;;;;;;5040111;28;20041;-88
2023/02/13 17:39:41;;;;;;;34.70;20.00;;;3.60;99.90;;;;;;5014171;28;20124;-90
2023/02/13 17:42:29;;;;;;;33.90;19.48;;;3.50;99.90;;;;;;5026876;28;20045;-90
2023/02/13 17:45:23;;;;;;;35.63;19.75;;;3.50;99.90;;;;;;5025305;28;20049;-90
2023/02/13 17:48:10;;;;;;;34.78;20.08;;;3.50;99.90;;;;;;5025855;28;20055;-90
2023/02/13 17:50:59;;;;;;;39.20;19.40;;;3.40;1.00;;;;;;5040858;28;20045;-90
2023/02/13 17:53:49;;;;;;;43.50;20.70;;;3.30;1.00;;;;;;5024833;28;20053;-90
2023/02/13 17:56:42;;;;;;;22.60;14.88;;;3.20;1.00;;;;;;5036021;28;20038;-91
2023/02/13 17:59:30;;;;;;;31.77;19.27;;;3.20;33.00;;;;;;5031769;28;20068;-88
2023/02/13 18:02:25;;;;;;;35.45;20.40;;;3.10;99.90;;;;;;5034582;28;20057;-89
2023/02/13 18:05:14;;;;;;;40.15;19.50;;;3.00;99.90;;;;;;5056333;28;20135;-89
2023/02/13 18:08:04;;;;;;;38.50;20.83;;;2.80;99.90;;;;;;5040237;28;20075;-91
2023/02/13 18:10:54;;;;;;;37.33;21.08;;;2.70;99.90;;;;;;5016342;28;20051;-88
2023/02/13 18:13:46;;;;;;;45.55;22.63;;;2.70;1.00;;;;;;5045893;28;20042;-88
2023/02/13 18:16:37;;;;;;;43.95;22.63;;;2.60;4.50;;;;;;5052350;28;20090;-90
2023/02/13 18:19:25;;;;;;;44.03;22.98;;;2.50;99.90;;;;;;5049047;28;20109;-89
2023/02/13 18:22:12;;;;;;;47.03;24.23;;;2.40;99.90;;;;;;5042989;28;20081;-87
2023/02/13 18:25:00;;;;;;;44.00;24.13;;;2.40;1.00;;;;;;5052449;28;20097;-88
2023/02/13 18:27:48;;;;;;;43.85;23.48;;;2.30;99.90;;;;;;5018591;28;20045;-89
2023/02/13 18:30:36;;;;;;;41.08;22.73;;;2.20;99.90;;;;;;5045042;28;20487;-88
2023/02/13 18:33:23;;;;;;;47.88;24.83;;;2.00;99.90;;;;;;5041973;28;20149;-89
2023/02/13 18:36:10;;;;;;;49.20;27.02;;;1.90;99.90;;;;;;5034271;28;20053;-90
2023/02/13 18:38:59;;;;;;;48.28;24.67;;;1.90;1.00;;;;;;5033034;28;20049;-90
2023/02/13 18:41:48;;;;;;;46.30;24.80;;;1.80;99.90;;;;;;5017032;28;20203;-88
2023/02/13 18:44:37;;;;;;;47.80;24.13;;;1.80;45.90;;;;;;5020576;28;20045;-88
2023/02/13 18:47:25;;;;;;;51.97;25.35;;;1.80;1.00;;;;;;5029264;28;20046;-89
2023/02/13 18:50:13;;;;;;;49.53;25.23;;;1.70;99.90;;;;;;5040764;28;20049;-86
2023/02/13 18:53:00;;;;;;;47.38;24.33;;;1.70;1.00;;;;;;5020127;28;20514;-89
2023/02/13 18:55:48;;;;;;;50.15;26.05;;;1.60;99.90;;;;;;5017521;28;20049;-89
2023/02/13 18:58:37;;;;;;;46.78;26.10;;;1.60;99.90;;;;;;5027626;28;20052;-89
2023/02/13 19:01:25;;;;;;;52.25;26.92;;;1.50;1.00;;;;;;5024389;28;20100;-88
2023/02/13 19:04:12;;;;;;;52.70;28.77;;;1.40;1.00;;;;;;5028833;28;20139;-90
2023/02/13 19:07:00;;;;;;;50.65;28.67;;;1.30;6.70;;;;;;5022876;28;20505;-89
2023/02/13 19:09:48;;;;;;;61.42;30.70;;;1.30;99.90;;;;;;5010274;28;20046;-88
2023/02/13 19:12:38;;;;;;;60.72;31.05;;;1.20;1.00;;;;;;5013185;28;20470;-90
2023/02/13 19:15:25;;;;;;;51.30;27.40;;;1.20;1.00;;;;;;5022935;28;20057;-88
2023/02/13 19:18:14;;;;;;;55.78;28.42;;;1.20;1.00;;;;;;5041999;28;20056;-88
2023/02/13 19:21:03;;;;;;;55.42;27.80;;;1.10;3.50;;;;;;5034347;28;20506;-89
2023/02/13 19:23:51;;;;;;;56.08;29.05;;;1.00;90.90;;;;;;5017913;28;20171;-88
2023/02/13 19:26:39;;;;;;;53.30;29.38;;;1.10;99.90;;;;;;5036053;28;20068;-90
2023/02/13 19:29:26;;;;;;;65.78;29.25;;;1.10;99.90;;;;;;5037967;28;20038;-91
2023/02/13 19:32:15;;;;;;;57.67;29.60;;;1.10;99.90;;;;;;5020260;28;20049;-88
2023/02/13 19:35:03;;;;;;;55.38;28.05;;;1.10;99.90;;;;;;5022825;28;20329;-90
2023/02/13 19:37:51;;;;;;;60.55;31.05;;;1.10;99.90;;;;;;5022951;28;20038;-89
2023/02/13 19:40:38;;;;;;;52.72;28.58;;;1.10;99.90;;;;;;5034620;28;20465;-90
2023/02/13 19:43:27;;;;;;;54.42;29.17;;;1.00;99.90;;;;;;5035097;28;20112;-90
2023/02/13 19:46:28;;;;;;;57.58;27.95;;;0.90;99.90;;;;;;5030773;28;20465;-89
2023/02/13 19:49:17;;;;;;;55.17;28.65;;;0.80;99.90;;;;;;5033143;28;20075;-88
2023/02/13 19:52:05;;;;;;;53.95;27.45;;;0.70;99.90;;;;;;5029537;28;20045;-89
2023/02/13 19:54:54;;;;;;;48.15;25.88;;;0.70;99.90;;;;;;5032846;28;20056;-88
2023/02/13 19:57:42;;;;;;;49.70;26.45;;;0.60;99.90;;;;;;5033504;28;20127;-89
2023/02/13 20:00:30;;;;;;;57.42;27.90;;;0.60;99.90;;;;;;5027814;28;20070;-89
2023/02/13 20:03:18;;;;;;;51.10;27.70;;;0.60;99.90;;;;;;5017628;28;20125;-88
2023/02/13 20:06:17;;;;;;;52.30;27.90;;;0.50;99.90;;;;;;5034723;28;20049;-90
2023/02/13 20:09:08;;;;;;;52.88;26.67;;;0.40;99.90;;;;;;5051677;28;20057;-87
2023/02/13 20:11:58;;;;;;;51.25;25.65;;;0.30;99.90;;;;;;5041847;28;20114;-88
2023/02/13 20:14:46;;;;;;;51.45;27.88;;;0.20;99.90;;;;;;5030752;28;20104;-91
2023/02/13 20:17:36;;;;;;;49.95;27.48;;;0.20;99.90;;;;;;5039091;28;20042;-89
2023/02/13 20:20:26;;;;;;;54.22;27.40;;;0.00;99.90;;;;;;5039061;28;20061;-91
2023/02/13 20:23:16;;;;;;;55.47;28.35;;;0.00;99.90;;;;;;5039185;28;20041;-90
2023/02/13 20:26:12;;;;;;;52.00;27.77;;;0.00;99.90;;;;;;5048720;28;20137;-91
2023/02/13 20:29:02;;;;;;;56.10;28.73;;;0.10;99.90;;;;;;5034803;28;20042;-90
2023/02/13 20:31:50;;;;;;;60.83;30.70;;;0.10;99.90;;;;;;5036587;28;20045;-89
2023/02/13 20:34:39;;;;;;;54.83;29.13;;;0.10;99.90;;;;;;5043358;28;20052;-89
2023/02/13 20:37:45;;;;;;;55.45;28.08;;;0.00;99.90;;;;;;5038010;28;20125;-88
2023/02/13 20:40:33;;;;;;;50.72;27.27;;;-0.20;99.90;;;;;;5036270;28;20128;-89
2023/02/13 20:43:21;;;;;;;50.00;27.25;;;-0.20;99.90;;;;;;5049563;28;20767;-89
2023/02/13 20:46:09;;;;;;;55.33;27.48;;;-0.10;99.90;;;;;;5047286;28;20049;-90
2023/02/13 20:49:01;;;;;;;54.20;27.50;;;0.00;99.90;;;;;;5028514;28;20049;-90
2023/02/13 20:51:51;;;;;;;62.38;30.02;;;0.00;99.90;;;;;;5039317;28;20055;-88
2023/02/13 20:54:39;;;;;;;57.35;28.25;;;0.10;99.90;;;;;;5048798;28;20110;-88
2023/02/13 20:57:27;;;;;;;59.90;31.52;;;0.00;99.90;;;;;;5049206;28;20049;-86
2023/02/13 21:00:14;;;;;;;59.70;30.23;;;0.00;99.90;;;;;;5039464;28;20045;-86
2023/02/13 21:03:02;;;;;;;56.55;29.38;;;0.00;99.90;;;;;;5046169;28;20050;-88
2023/02/13 21:05:49;;;;;;;57.75;29.20;;;0.10;99.90;;;;;;5053191;28;20041;-91
2023/02/13 21:08:41;;;;;;;56.58;31.13;;;0.00;99.90;;;;;;5043218;28;20364;-90
2023/02/13 21:11:28;;;;;;;56.05;30.40;;;0.00;99.90;;;;;;5037471;28;20124;-89
2023/02/13 21:14:17;;;;;;;62.13;31.02;;;-0.10;99.90;;;;;;5029175;28;20063;-90
2023/02/13 21:17:05;;;;;;;61.90;30.88;;;-0.10;99.90;;;;;;5030381;28;20048;-90
2023/02/13 21:19:55;;;;;;;67.53;32.60;;;-0.10;99.90;;;;;;5030499;28;20073;-90
2023/02/13 21:22:45;;;;;;;67.55;33.63;;;-0.20;99.90;;;;;;5019735;28;20448;-90
2023/02/13 21:25:33;;;;;;;63.80;31.88;;;-0.20;99.90;;;;;;5018712;28;20123;-90
2023/02/13 21:28:21;;;;;;;57.25;29.80;;;-0.20;99.90;;;;;;5040861;28;20045;-90
2023/02/13 21:31:18;;;;;;;59.88;29.42;;;-0.20;99.90;;;;;;5024274;28;20063;-90
2023/02/13 21:34:09;;;;;;;55.45;29.10;;;-0.10;99.90;;;;;;5024044;28;20060;-90
2023/02/13 21:36:58;;;;;;;60.67;30.77;;;0.00;99.90;;;;;;5029547;28;20049;-89
2023/02/13 21:39:46;;;;;;;60.70;31.05;;;0.10;99.90;;;;;;5036237;28;20048;-87
2023/02/13 21:42:34;;;;;;;56.80;29.80;;;0.20;99.90;;;;;;5024112;28;20053;-91
2023/02/13 21:45:22;;;;;;;60.80;30.75;;;0.10;99.90;;;;;;5039802;28;20057;-87
2023/02/13 21:48:09;;;;;;;56.22;28.73;;;0.10;99.90;;;;;;5037984;28;20499;-89
2023/02/13 21:50:56;;;;;;;57.83;28.52;;;0.00;99.90;;;;;;5037162;28;20143;-88
2023/02/13 21:53:48;;;;;;;52.95;28.40;;;-0.10;99.90;;;;;;5038231;28;20050;-90
2023/02/13 21:56:40;;;;;;;56.00;28.15;;;-0.20;99.90;;;;;;5028592;28;20128;-90
2023/02/13 21:59:49;;;;;;;53.47;26.70;;;-0.30;99.90;;;;;;4939698;29;20050;-90
2023/02/13 22:02:37;;;;;;;49.35;24.95;;;-0.50;99.90;;;;;;4938290;29;20473;-90
2023/02/13 22:05:25;;;;;;;50.60;26.52;;;-0.70;99.90;;;;;;4955401;29;20134;-89
2023/02/13 22:08:12;;;;;;;50.90;25.02;;;-0.80;99.90;;;;;;4957435;29;20058;-88
2023/02/13 22:11:00;;;;;;;52.92;27.75;;;-0.90;99.90;;;;;;4957465;29;20051;-89
2023/02/13 22:13:47;;;;;;;54.58;28.20;;;-0.90;99.90;;;;;;4942137;29;20055;-86
2023/02/13 22:16:36;;;;;;;62.47;28.70;;;-0.80;99.90;;;;;;4957174;28;20054;-90
2023/02/13 22:19:24;;;;;;;83.70;39.97;;;-0.90;99.90;;;;;;5020390;28;20038;-90
2023/02/13 22:22:11;;;;;;;80.10;36.88;;;-1.00;99.90;;;;;;5041090;28;20053;-88
2023/02/13 22:24:59;;;;;;;76.18;36.65;;;-1.20;99.90;;;;;;5038054;28;20505;-89
2023/02/13 22:27:47;;;;;;;69.53;33.85;;;-1.30;99.90;;;;;;5031905;28;20037;-87
2023/02/13 22:30:38;;;;;;;72.45;35.58;;;-1.40;99.90;;;;;;5030500;28;20064;-86
2023/02/13 22:33:27;;;;;;;65.35;32.85;;;-1.40;99.90;;;;;;5021734;28;20041;-86
2023/02/13 22:36:17;;;;;;;68.68;33.10;;;-1.50;99.90;;;;;;5027973;28;20038;-86
2023/02/13 22:39:05;;;;;;;72.55;34.15;;;-1.60;99.90;;;;;;5022653;28;20052;-85
2023/02/13 22:41:54;;;;;;;66.95;31.60;;;-1.60;99.90;;;;;;5033097;28;20045;-87
2023/02/13 22:44:43;;;;;;;69.43;32.45;;;-1.60;99.90;;;;;;5050150;28;20041;-86
2023/02/13 22:47:30;;;;;;;61.17;30.60;;;-1.70;99.90;;;;;;5021834;28;20042;-85
2023/02/13 22:50:17;;;;;;;65.05;31.15;;;-1.70;99.90;;;;;;5017205;28;20056;-84
2023/02/13 22:53:05;;;;;;;69.97;33.22;;;-1.70;99.90;;;;;;5034542;28;20144;-84
2023/02/13 22:55:54;;;;;;;69.47;32.20;;;-1.70;99.90;;;;;;5008935;28;20040;-86